sensor_id;sensor_type;location;lat;lon;timestamp;P1;durP1;ratioP1;P2;durP2;ratioP2
78443;SDS011;67739;52.986;8.894;2023-03-01T00:02:10;12.88;;;6.50;;
78443;SDS011;67739;52.986;8.894;2023-03-01T00:04:35;10.95;;;5.82;;
78443;SDS011;67739;52.986;8.894;2023-03-01T00:07:01;13.32;;;6.38;;
78443;SDS011;67739;52.986;8.894;2023-03-01T00:09:26;14.07;;;5.80;;
78443;SDS011;67739;52.986;8.894;2023-03-01T00:11:51;14.65;;;6.60;;
78443;SDS011;67739;52.986;8.894;2023-03-01T00:14:17;10.00;;;5.53;;
78443;SDS011;67739;52.986;8.894;2023-03-01T00:16:43;12.98;;;6.15;;
78443;SDS011;67739;52.986;8.894;2023-03-01T00:19:11;14.30;;;7.32;;
78443;SDS011;67739;52.986;8.894;2023-03-01T00:21:38;12.65;;;6.28;;
78443;SDS011;67739;52.986;8.894;2023-03-01T00:24:04;14.80;;;6.30;;
78443;SDS011;67739;52.986;8.894;2023-03-01T00:26:29;22.98;;;7.32;;
78443;SDS011;67739;52.986;8.894;2023-03-01T00:28:56;11.82;;;7.45;;
78443;SDS011;67739;52.986;8.894;2023-03-01T00:31:23;14.07;;;6.65;;
78443;SDS011;67739;52.986;8.894;2023-03-01T00:33:54;12.80;;;6.57;;
78443;SDS011;67739;52.986;8.894;2023-03-01T00:36:22;11.90;;;6.60;;
78443;SDS011;67739;52.986;8.894;2023-03-01T00:38:49;16.55;;;7.47;;
78443;SDS011;67739;52.986;8.894;2023-03-01T00:41:15;9.82;;;6.07;;
78443;SDS011;67739;52.986;8.894;2023-03-01T00:43:42;12.07;;;7.18;;
78443;SDS011;67739;52.986;8.894;2023-03-01T00:48:35;9.43;;;6.25;;
78443;SDS011;67739;52.986;8.894;2023-03-01T00:51:08;15.02;;;7.57;;
78443;SDS011;67739;52.986;8.894;2023-03-01T00:55:59;11.65;;;6.53;;
78443;SDS011;67739;52.986;8.894;2023-03-01T00:58:25;10.95;;;5.72;;
78443;SDS011;67739;52.986;8.894;2023-03-01T01:00:50;11.43;;;5.43;;
78443;SDS011;67739;52.986;8.894;2023-03-01T01:03:17;12.13;;;6.60;;
78443;SDS011;67739;52.986;8.894;2023-03-01T01:05:42;13.73;;;6.85;;
78443;SDS011;67739;52.986;8.894;2023-03-01T01:08:07;13.85;;;7.07;;
78443;SDS011;67739;52.986;8.894;2023-03-01T01:10:33;14.18;;;6.70;;
78443;SDS011;67739;52.986;8.894;2023-03-01T01:12:59;15.20;;;6.65;;
78443;SDS011;67739;52.986;8.894;2023-03-01T01:15:25;13.35;;;7.70;;
78443;SDS011;67739;52.986;8.894;2023-03-01T01:17:50;20.13;;;6.90;;
78443;SDS011;67739;52.986;8.894;2023-03-01T01:20:16;14.38;;;6.22;;
78443;SDS011;67739;52.986;8.894;2023-03-01T01:22:42;19.42;;;7.07;;
78443;SDS011;67739;52.986;8.894;2023-03-01T01:25:08;12.73;;;6.85;;
78443;SDS011;67739;52.986;8.894;2023-03-01T01:27:33;10.88;;;6.38;;
78443;SDS011;67739;52.986;8.894;2023-03-01T01:29:59;12.90;;;7.10;;
78443;SDS011;67739;52.986;8.894;2023-03-01T01:32:24;14.73;;;7.40;;
78443;SDS011;67739;52.986;8.894;2023-03-01T01:34:49;15.15;;;8.00;;
78443;SDS011;67739;52.986;8.894;2023-03-01T01:37:15;14.93;;;8.55;;
78443;SDS011;67739;52.986;8.894;2023-03-01T01:39:40;11.57;;;6.45;;
78443;SDS011;67739;52.986;8.894;2023-03-01T01:42:06;10.02;;;7.20;;
78443;SDS011;67739;52.986;8.894;2023-03-01T01:44:32;12.57;;;6.53;;
78443;SDS011;67739;52.986;8.894;2023-03-01T01:47:00;10.90;;;6.47;;
78443;SDS011;67739;52.986;8.894;2023-03-01T01:50:10;13.68;;;7.88;;
78443;SDS011;67739;52.986;8.894;2023-03-01T01:52:34;13.50;;;7.57;;
78443;SDS011;67739;52.986;8.894;2023-03-01T01:55:03;16.02;;;9.43;;
78443;SDS011;67739;52.986;8.894;2023-03-01T01:57:36;13.30;;;7.07;;
78443;SDS011;67739;52.986;8.894;2023-03-01T02:00:20;11.50;;;7.05;;
78443;SDS011;67739;52.986;8.894;2023-03-01T02:02:48;13.73;;;7.60;;
78443;SDS011;67739;52.986;8.894;2023-03-01T02:07:58;14.55;;;8.68;;
78443;SDS011;67739;52.986;8.894;2023-03-01T02:10:24;15.23;;;6.63;;
78443;SDS011;67739;52.986;8.894;2023-03-01T02:12:50;12.60;;;7.25;;
78443;SDS011;67739;52.986;8.894;2023-03-01T02:15:17;12.00;;;6.70;;
78443;SDS011;67739;52.986;8.894;2023-03-01T02:17:42;11.80;;;6.85;;
78443;SDS011;67739;52.986;8.894;2023-03-01T02:22:52;12.85;;;6.57;;
78443;SDS011;67739;52.986;8.894;2023-03-01T02:25:24;12.60;;;7.18;;
78443;SDS011;67739;52.986;8.894;2023-03-01T02:30:44;16.17;;;5.63;;
78443;SDS011;67739;52.986;8.894;2023-03-01T02:33:31;19.80;;;6.22;;
78443;SDS011;67739;52.986;8.894;2023-03-01T02:35:58;10.05;;;5.53;;
78443;SDS011;67739;52.986;8.894;2023-03-01T02:38:25;11.57;;;6.72;;
78443;SDS011;67739;52.986;8.894;2023-03-01T02:40:50;11.27;;;5.10;;
78443;SDS011;67739;52.986;8.894;2023-03-01T02:43:16;9.77;;;5.95;;
78443;SDS011;67739;52.986;8.894;2023-03-01T02:45:49;11.75;;;5.75;;
78443;SDS011;67739;52.986;8.894;2023-03-01T02:48:17;12.15;;;5.72;;
78443;SDS011;67739;52.986;8.894;2023-03-01T02:51:02;10.70;;;5.65;;
78443;SDS011;67739;52.986;8.894;2023-03-01T02:56:06;9.23;;;5.70;;
78443;SDS011;67739;52.986;8.894;2023-03-01T02:58:37;11.63;;;5.63;;
78443;SDS011;67739;52.986;8.894;2023-03-01T03:03:35;7.78;;;4.65;;
78443;SDS011;67739;52.986;8.894;2023-03-01T03:06:01;10.95;;;5.43;;
78443;SDS011;67739;52.986;8.894;2023-03-01T03:08:26;9.50;;;5.75;;
78443;SDS011;67739;52.986;8.894;2023-03-01T03:10:51;11.80;;;5.38;;
78443;SDS011;67739;52.986;8.894;2023-03-01T03:13:17;12.80;;;5.88;;
78443;SDS011;67739;52.986;8.894;2023-03-01T03:15:43;12.75;;;6.75;;
78443;SDS011;67739;52.986;8.894;2023-03-01T03:18:10;10.43;;;5.30;;
78443;SDS011;67739;52.986;8.894;2023-03-01T03:20:40;10.95;;;6.65;;
78443;SDS011;67739;52.986;8.894;2023-03-01T03:23:06;9.98;;;6.30;;
78443;SDS011;67739;52.986;8.894;2023-03-01T03:25:32;12.55;;;7.05;;
78443;SDS011;67739;52.986;8.894;2023-03-01T03:27:58;11.13;;;6.63;;
78443;SDS011;67739;52.986;8.894;2023-03-01T03:30:24;12.57;;;7.47;;
78443;SDS011;67739;52.986;8.894;2023-03-01T03:32:52;9.75;;;5.50;;
78443;SDS011;67739;52.986;8.894;2023-03-01T03:35:19;11.73;;;7.07;;
78443;SDS011;67739;52.986;8.894;2023-03-01T03:37:46;11.02;;;6.05;;
78443;SDS011;67739;52.986;8.894;2023-03-01T03:40:27;11.40;;;7.18;;
78443;SDS011;67739;52.986;8.894;2023-03-01T03:43:00;9.77;;;4.88;;
78443;SDS011;67739;52.986;8.894;2023-03-01T03:45:26;9.07;;;4.90;;
78443;SDS011;67739;52.986;8.894;2023-03-01T03:47:52;10.20;;;4.90;;
78443;SDS011;67739;52.986;8.894;2023-03-01T03:50:17;9.52;;;5.63;;
78443;SDS011;67739;52.986;8.894;2023-03-01T03:52:43;9.25;;;4.65;;
78443;SDS011;67739;52.986;8.894;2023-03-01T03:55:10;12.90;;;6.65;;
78443;SDS011;67739;52.986;8.894;2023-03-01T03:57:37;9.45;;;5.00;;
78443;SDS011;67739;52.986;8.894;2023-03-01T04:00:04;11.75;;;5.68;;
78443;SDS011;67739;52.986;8.894;2023-03-01T04:02:30;7.63;;;4.38;;
78443;SDS011;67739;52.986;8.894;2023-03-01T04:04:56;11.18;;;4.75;;
78443;SDS011;67739;52.986;8.894;2023-03-01T04:07:24;13.98;;;5.90;;
78443;SDS011;67739;52.986;8.894;2023-03-01T04:09:49;11.00;;;6.15;;
78443;SDS011;67739;52.986;8.894;2023-03-01T04:12:16;10.38;;;6.00;;
78443;SDS011;67739;52.986;8.894;2023-03-01T04:14:45;11.07;;;6.13;;
78443;SDS011;67739;52.986;8.894;2023-03-01T04:17:10;13.13;;;6.70;;
78443;SDS011;67739;52.986;8.894;2023-03-01T04:19:36;11.57;;;6.15;;
78443;SDS011;67739;52.986;8.894;2023-03-01T04:22:02;11.40;;;5.95;;
78443;SDS011;67739;52.986;8.894;2023-03-01T04:27:02;10.57;;;7.03;;
78443;SDS011;67739;52.986;8.894;2023-03-01T04:29:28;12.52;;;5.75;;
78443;SDS011;67739;52.986;8.894;2023-03-01T04:31:53;15.23;;;6.22;;
78443;SDS011;67739;52.986;8.894;2023-03-01T04:34:19;11.25;;;6.55;;
78443;SDS011;67739;52.986;8.894;2023-03-01T04:36:44;9.27;;;6.18;;
78443;SDS011;67739;52.986;8.894;2023-03-01T04:39:10;12.13;;;6.65;;
78443;SDS011;67739;52.986;8.894;2023-03-01T04:41:38;11.20;;;6.55;;
78443;SDS011;67739;52.986;8.894;2023-03-01T04:46:30;11.00;;;5.75;;
78443;SDS011;67739;52.986;8.894;2023-03-01T04:48:56;12.32;;;7.93;;
78443;SDS011;67739;52.986;8.894;2023-03-01T04:51:21;9.93;;;7.03;;
78443;SDS011;67739;52.986;8.894;2023-03-01T04:53:47;10.50;;;5.28;;
78443;SDS011;67739;52.986;8.894;2023-03-01T04:56:12;12.13;;;7.10;;
78443;SDS011;67739;52.986;8.894;2023-03-01T04:58:41;13.10;;;7.45;;
78443;SDS011;67739;52.986;8.894;2023-03-01T05:01:13;13.88;;;7.05;;
78443;SDS011;67739;52.986;8.894;2023-03-01T05:03:42;13.45;;;5.70;;
78443;SDS011;67739;52.986;8.894;2023-03-01T05:06:09;12.75;;;5.38;;
78443;SDS011;67739;52.986;8.894;2023-03-01T05:08:35;9.77;;;7.68;;
78443;SDS011;67739;52.986;8.894;2023-03-01T05:11:02;15.05;;;6.45;;
78443;SDS011;67739;52.986;8.894;2023-03-01T05:13:28;16.25;;;7.18;;
78443;SDS011;67739;52.986;8.894;2023-03-01T05:15:55;11.23;;;6.95;;
78443;SDS011;67739;52.986;8.894;2023-03-01T05:18:22;13.77;;;7.22;;
78443;SDS011;67739;52.986;8.894;2023-03-01T05:20:51;11.23;;;6.15;;
78443;SDS011;67739;52.986;8.894;2023-03-01T05:23:21;9.52;;;5.68;;
78443;SDS011;67739;52.986;8.894;2023-03-01T05:25:47;9.15;;;5.88;;
78443;SDS011;67739;52.986;8.894;2023-03-01T05:28:13;11.63;;;7.47;;
78443;SDS011;67739;52.986;8.894;2023-03-01T05:30:39;12.00;;;6.57;;
78443;SDS011;67739;52.986;8.894;2023-03-01T05:33:05;10.48;;;5.65;;
78443;SDS011;67739;52.986;8.894;2023-03-01T05:35:35;12.57;;;7.25;;
78443;SDS011;67739;52.986;8.894;2023-03-01T05:38:01;18.00;;;7.70;;
78443;SDS011;67739;52.986;8.894;2023-03-01T05:40:28;15.02;;;6.55;;
78443;SDS011;67739;52.986;8.894;2023-03-01T05:42:55;8.85;;;5.60;;
78443;SDS011;67739;52.986;8.894;2023-03-01T05:45:22;19.10;;;6.47;;
78443;SDS011;67739;52.986;8.894;2023-03-01T05:47:49;12.45;;;5.85;;
78443;SDS011;67739;52.986;8.894;2023-03-01T05:52:45;8.18;;;4.85;;
78443;SDS011;67739;52.986;8.894;2023-03-01T05:55:32;18.65;;;5.63;;
78443;SDS011;67739;52.986;8.894;2023-03-01T05:57:59;11.80;;;5.90;;
78443;SDS011;67739;52.986;8.894;2023-03-01T06:00:26;10.52;;;4.78;;
78443;SDS011;67739;52.986;8.894;2023-03-01T06:02:53;15.70;;;5.85;;
78443;SDS011;67739;52.986;8.894;2023-03-01T06:05:22;9.45;;;5.20;;
78443;SDS011;67739;52.986;8.894;2023-03-01T06:07:48;10.50;;;5.70;;
78443;SDS011;67739;52.986;8.894;2023-03-01T06:10:15;10.63;;;5.32;;
78443;SDS011;67739;52.986;8.894;2023-03-01T06:12:41;15.73;;;7.45;;
78443;SDS011;67739;52.986;8.894;2023-03-01T06:15:08;10.32;;;5.65;;
78443;SDS011;67739;52.986;8.894;2023-03-01T06:17:36;8.48;;;5.22;;
78443;SDS011;67739;52.986;8.894;2023-03-01T06:20:04;9.63;;;3.78;;
78443;SDS011;67739;52.986;8.894;2023-03-01T06:22:31;8.65;;;4.32;;
78443;SDS011;67739;52.986;8.894;2023-03-01T06:24:56;7.75;;;3.00;;
78443;SDS011;67739;52.986;8.894;2023-03-01T06:27:21;7.03;;;3.15;;
78443;SDS011;67739;52.986;8.894;2023-03-01T06:29:47;9.18;;;3.60;;
78443;SDS011;67739;52.986;8.894;2023-03-01T06:32:12;9.75;;;4.18;;
78443;SDS011;67739;52.986;8.894;2023-03-01T06:34:37;8.27;;;4.03;;
78443;SDS011;67739;52.986;8.894;2023-03-01T06:37:03;7.95;;;3.40;;
78443;SDS011;67739;52.986;8.894;2023-03-01T06:39:30;7.80;;;3.30;;
78443;SDS011;67739;52.986;8.894;2023-03-01T06:41:56;9.20;;;3.85;;
78443;SDS011;67739;52.986;8.894;2023-03-01T06:44:21;8.32;;;3.83;;
78443;SDS011;67739;52.986;8.894;2023-03-01T06:46:46;7.90;;;3.97;;
78443;SDS011;67739;52.986;8.894;2023-03-01T06:49:12;9.02;;;4.00;;
78443;SDS011;67739;52.986;8.894;2023-03-01T06:51:37;10.80;;;4.93;;
78443;SDS011;67739;52.986;8.894;2023-03-01T06:54:05;11.48;;;5.07;;
78443;SDS011;67739;52.986;8.894;2023-03-01T06:56:31;7.28;;;4.03;;
78443;SDS011;67739;52.986;8.894;2023-03-01T06:58:56;15.75;;;5.20;;
78443;SDS011;67739;52.986;8.894;2023-03-01T07:01:22;12.68;;;4.60;;
78443;SDS011;67739;52.986;8.894;2023-03-01T07:03:47;9.40;;;3.40;;
78443;SDS011;67739;52.986;8.894;2023-03-01T07:06:13;6.78;;;3.17;;
78443;SDS011;67739;52.986;8.894;2023-03-01T07:08:38;8.32;;;3.63;;
78443;SDS011;67739;52.986;8.894;2023-03-01T07:11:03;5.78;;;3.42;;
78443;SDS011;67739;52.986;8.894;2023-03-01T07:13:29;7.45;;;3.30;;
78443;SDS011;67739;52.986;8.894;2023-03-01T07:15:54;6.32;;;3.20;;
78443;SDS011;67739;52.986;8.894;2023-03-01T07:18:19;7.60;;;2.78;;
78443;SDS011;67739;52.986;8.894;2023-03-01T07:20:45;11.35;;;4.15;;
78443;SDS011;67739;52.986;8.894;2023-03-01T07:23:10;6.68;;;2.88;;
78443;SDS011;67739;52.986;8.894;2023-03-01T07:25:36;8.75;;;4.28;;
78443;SDS011;67739;52.986;8.894;2023-03-01T07:28:01;6.97;;;3.40;;
78443;SDS011;67739;52.986;8.894;2023-03-01T07:30:26;6.88;;;3.67;;
78443;SDS011;67739;52.986;8.894;2023-03-01T07:32:53;10.05;;;4.00;;
78443;SDS011;67739;52.986;8.894;2023-03-01T07:35:19;9.20;;;4.82;;
78443;SDS011;67739;52.986;8.894;2023-03-01T07:37:45;11.43;;;4.57;;
78443;SDS011;67739;52.986;8.894;2023-03-01T07:40:11;10.77;;;6.30;;
78443;SDS011;67739;52.986;8.894;2023-03-01T07:42:36;10.27;;;4.95;;
78443;SDS011;67739;52.986;8.894;2023-03-01T07:45:02;12.52;;;4.78;;
78443;SDS011;67739;52.986;8.894;2023-03-01T07:47:28;9.38;;;5.20;;
78443;SDS011;67739;52.986;8.894;2023-03-01T07:49:54;8.80;;;5.30;;
78443;SDS011;67739;52.986;8.894;2023-03-01T07:52:19;9.45;;;5.20;;
78443;SDS011;67739;52.986;8.894;2023-03-01T07:54:44;11.07;;;5.70;;
78443;SDS011;67739;52.986;8.894;2023-03-01T07:57:10;9.40;;;5.72;;
78443;SDS011;67739;52.986;8.894;2023-03-01T07:59:35;9.85;;;5.28;;
78443;SDS011;67739;52.986;8.894;2023-03-01T08:02:01;11.05;;;6.90;;
78443;SDS011;67739;52.986;8.894;2023-03-01T08:04:26;14.25;;;8.13;;
78443;SDS011;67739;52.986;8.894;2023-03-01T08:06:52;13.65;;;8.93;;
78443;SDS011;67739;52.986;8.894;2023-03-01T08:11:43;11.67;;;7.37;;
78443;SDS011;67739;52.986;8.894;2023-03-01T08:14:08;13.90;;;9.45;;
78443;SDS011;67739;52.986;8.894;2023-03-01T08:16:35;13.07;;;9.30;;
78443;SDS011;67739;52.986;8.894;2023-03-01T08:19:07;11.65;;;8.32;;
78443;SDS011;67739;52.986;8.894;2023-03-01T08:21:34;12.80;;;8.38;;
78443;SDS011;67739;52.986;8.894;2023-03-01T08:24:00;12.57;;;7.90;;
78443;SDS011;67739;52.986;8.894;2023-03-01T08:26:26;12.52;;;8.27;;
78443;SDS011;67739;52.986;8.894;2023-03-01T08:28:52;11.88;;;7.43;;
78443;SDS011;67739;52.986;8.894;2023-03-01T08:33:46;13.25;;;8.60;;
78443;SDS011;67739;52.986;8.894;2023-03-01T08:36:19;11.85;;;7.22;;
78443;SDS011;67739;52.986;8.894;2023-03-01T08:38:45;10.75;;;7.07;;
78443;SDS011;67739;52.986;8.894;2023-03-01T08:41:11;12.98;;;8.98;;
78443;SDS011;67739;52.986;8.894;2023-03-01T08:43:37;13.73;;;8.40;;
78443;SDS011;67739;52.986;8.894;2023-03-01T08:46:02;12.73;;;8.15;;
78443;SDS011;67739;52.986;8.894;2023-03-01T08:48:28;10.93;;;6.25;;
78443;SDS011;67739;52.986;8.894;2023-03-01T08:53:18;12.25;;;7.15;;
78443;SDS011;67739;52.986;8.894;2023-03-01T08:58:09;7.40;;;4.25;;
78443;SDS011;67739;52.986;8.894;2023-03-01T09:00:34;11.35;;;7.80;;
78443;SDS011;67739;52.986;8.894;2023-03-01T09:05:25;11.52;;;7.07;;
78443;SDS011;67739;52.986;8.894;2023-03-01T09:10:15;7.77;;;5.60;;
78443;SDS011;67739;52.986;8.894;2023-03-01T09:15:06;11.27;;;4.82;;
78443;SDS011;67739;52.986;8.894;2023-03-01T09:19:57;11.37;;;5.43;;
78443;SDS011;67739;52.986;8.894;2023-03-01T09:24:48;8.32;;;3.85;;
78443;SDS011;67739;52.986;8.894;2023-03-01T09:29:39;7.70;;;3.35;;
78443;SDS011;67739;52.986;8.894;2023-03-01T09:34:30;9.82;;;3.33;;
78443;SDS011;67739;52.986;8.894;2023-03-01T09:39:23;10.30;;;4.72;;
78443;SDS011;67739;52.986;8.894;2023-03-01T09:44:38;10.77;;;4.82;;
78443;SDS011;67739;52.986;8.894;2023-03-01T09:47:20;11.85;;;6.00;;
78443;SDS011;67739;52.986;8.894;2023-03-01T09:50:32;11.73;;;6.07;;
78443;SDS011;67739;52.986;8.894;2023-03-01T09:52:46;12.23;;;6.32;;
78443;SDS011;67739;52.986;8.894;2023-03-01T09:55:17;12.30;;;5.85;;
78443;SDS011;67739;52.986;8.894;2023-03-01T09:57:53;8.80;;;4.57;;
78443;SDS011;67739;52.986;8.894;2023-03-01T10:03:07;12.23;;;5.90;;
78443;SDS011;67739;52.986;8.894;2023-03-01T10:11:13;9.88;;;4.82;;
78443;SDS011;67739;52.986;8.894;2023-03-01T10:16:41;7.38;;;3.75;;
78443;SDS011;67739;52.986;8.894;2023-03-01T10:19:36;11.15;;;4.75;;
78443;SDS011;67739;52.986;8.894;2023-03-01T10:24:53;11.05;;;5.00;;
78443;SDS011;67739;52.986;8.894;2023-03-01T10:27:26;11.68;;;5.05;;
78443;SDS011;67739;52.986;8.894;2023-03-01T10:32:36;11.68;;;5.22;;
78443;SDS011;67739;52.986;8.894;2023-03-01T10:35:14;9.88;;;4.60;;
78443;SDS011;67739;52.986;8.894;2023-03-01T10:37:46;10.48;;;4.82;;
78443;SDS011;67739;52.986;8.894;2023-03-01T10:40:28;10.00;;;4.50;;
78443;SDS011;67739;52.986;8.894;2023-03-01T10:42:54;12.70;;;4.35;;
78443;SDS011;67739;52.986;8.894;2023-03-01T10:50:49;9.40;;;4.90;;
78443;SDS011;67739;52.986;8.894;2023-03-01T10:56:16;13.77;;;6.10;;
78443;SDS011;67739;52.986;8.894;2023-03-01T10:58:56;13.30;;;5.90;;
78443;SDS011;67739;52.986;8.894;2023-03-01T11:01:25;12.57;;;5.57;;
78443;SDS011;67739;52.986;8.894;2023-03-01T11:06:30;12.63;;;5.38;;
78443;SDS011;67739;52.986;8.894;2023-03-01T11:08:55;10.40;;;5.07;;
78443;SDS011;67739;52.986;8.894;2023-03-01T11:19:22;9.73;;;4.00;;
78443;SDS011;67739;52.986;8.894;2023-03-01T11:24:41;11.30;;;5.35;;
78443;SDS011;67739;52.986;8.894;2023-03-01T11:27:26;10.63;;;5.45;;
78443;SDS011;67739;52.986;8.894;2023-03-01T11:32:50;8.25;;;3.17;;
78443;SDS011;67739;52.986;8.894;2023-03-01T11:35:29;9.75;;;4.32;;
78443;SDS011;67739;52.986;8.894;2023-03-01T11:49:15;12.73;;;5.55;;
78443;SDS011;67739;52.986;8.894;2023-03-01T11:51:55;12.07;;;5.57;;
78443;SDS011;67739;52.986;8.894;2023-03-01T11:54:43;14.00;;;5.22;;
78443;SDS011;67739;52.986;8.894;2023-03-01T12:02:40;12.40;;;5.63;;
78443;SDS011;67739;52.986;8.894;2023-03-01T12:18:19;10.93;;;5.50;;
78443;SDS011;67739;52.986;8.894;2023-03-01T12:20:58;10.50;;;4.82;;
78443;SDS011;67739;52.986;8.894;2023-03-01T12:24:06;14.38;;;6.05;;
78443;SDS011;67739;52.986;8.894;2023-03-01T12:26:50;9.07;;;4.35;;
78443;SDS011;67739;52.986;8.894;2023-03-01T12:29:26;12.05;;;5.10;;
78443;SDS011;67739;52.986;8.894;2023-03-01T12:32:23;11.90;;;5.63;;
78443;SDS011;67739;52.986;8.894;2023-03-01T12:37:47;13.13;;;7.68;;
78443;SDS011;67739;52.986;8.894;2023-03-01T12:40:33;9.60;;;4.47;;
78443;SDS011;67739;52.986;8.894;2023-03-01T12:43:09;10.43;;;5.07;;
78443;SDS011;67739;52.986;8.894;2023-03-01T12:49:08;11.45;;;6.88;;
78443;SDS011;67739;52.986;8.894;2023-03-01T12:51:34;11.30;;;5.85;;
78443;SDS011;67739;52.986;8.894;2023-03-01T12:54:05;11.50;;;6.40;;
78443;SDS011;67739;52.986;8.894;2023-03-01T12:56:39;13.27;;;8.02;;
78443;SDS011;67739;52.986;8.894;2023-03-01T13:01:49;11.98;;;6.38;;
78443;SDS011;67739;52.986;8.894;2023-03-01T13:07:11;11.93;;;5.93;;
78443;SDS011;67739;52.986;8.894;2023-03-01T13:12:49;12.05;;;6.35;;
78443;SDS011;67739;52.986;8.894;2023-03-01T13:15:31;12.40;;;6.15;;
78443;SDS011;67739;52.986;8.894;2023-03-01T13:18:00;9.38;;;4.95;;
78443;SDS011;67739;52.986;8.894;2023-03-01T13:20:31;11.20;;;5.07;;
78443;SDS011;67739;52.986;8.894;2023-03-01T13:23:04;11.98;;;5.30;;
78443;SDS011;67739;52.986;8.894;2023-03-01T13:25:33;9.52;;;5.18;;
78443;SDS011;67739;52.986;8.894;2023-03-01T13:28:35;10.75;;;6.90;;
78443;SDS011;67739;52.986;8.894;2023-03-01T13:30:56;10.57;;;5.53;;
78443;SDS011;67739;52.986;8.894;2023-03-01T13:35:53;10.85;;;5.85;;
78443;SDS011;67739;52.986;8.894;2023-03-01T13:41:11;10.60;;;5.80;;
78443;SDS011;67739;52.986;8.894;2023-03-01T13:43:38;12.18;;;6.00;;
78443;SDS011;67739;52.986;8.894;2023-03-01T13:46:08;10.35;;;5.03;;
78443;SDS011;67739;52.986;8.894;2023-03-01T13:48:36;11.57;;;5.70;;
78443;SDS011;67739;52.986;8.894;2023-03-01T13:51:07;12.48;;;6.70;;
78443;SDS011;67739;52.986;8.894;2023-03-01T13:53:44;9.98;;;5.40;;
78443;SDS011;67739;52.986;8.894;2023-03-01T13:56:16;10.88;;;5.60;;
78443;SDS011;67739;52.986;8.894;2023-03-01T14:01:20;11.20;;;6.32;;
78443;SDS011;67739;52.986;8.894;2023-03-01T14:03:54;12.15;;;6.15;;
78443;SDS011;67739;52.986;8.894;2023-03-01T14:06:24;12.07;;;6.68;;
78443;SDS011;67739;52.986;8.894;2023-03-01T14:09:22;9.52;;;4.85;;
78443;SDS011;67739;52.986;8.894;2023-03-01T14:12:04;10.65;;;5.97;;
78443;SDS011;67739;52.986;8.894;2023-03-01T14:14:48;11.70;;;5.07;;
78443;SDS011;67739;52.986;8.894;2023-03-01T14:17:33;10.30;;;5.70;;
78443;SDS011;67739;52.986;8.894;2023-03-01T14:22:46;10.48;;;5.47;;
78443;SDS011;67739;52.986;8.894;2023-03-01T14:25:23;13.07;;;5.25;;
78443;SDS011;67739;52.986;8.894;2023-03-01T14:28:12;11.45;;;5.82;;
78443;SDS011;67739;52.986;8.894;2023-03-01T14:30:42;9.27;;;4.07;;
78443;SDS011;67739;52.986;8.894;2023-03-01T14:33:20;11.70;;;5.82;;
78443;SDS011;67739;52.986;8.894;2023-03-01T14:35:58;9.80;;;4.53;;
78443;SDS011;67739;52.986;8.894;2023-03-01T14:38:33;10.57;;;5.50;;
78443;SDS011;67739;52.986;8.894;2023-03-01T14:41:00;11.52;;;4.82;;
78443;SDS011;67739;52.986;8.894;2023-03-01T14:43:28;10.25;;;4.90;;
78443;SDS011;67739;52.986;8.894;2023-03-01T14:45:55;9.75;;;4.22;;
78443;SDS011;67739;52.986;8.894;2023-03-01T14:48:21;10.68;;;5.45;;
78443;SDS011;67739;52.986;8.894;2023-03-01T14:50:47;10.27;;;5.22;;
78443;SDS011;67739;52.986;8.894;2023-03-01T14:53:31;11.05;;;5.55;;
78443;SDS011;67739;52.986;8.894;2023-03-01T14:56:00;10.68;;;5.32;;
78443;SDS011;67739;52.986;8.894;2023-03-01T14:58:31;10.60;;;5.82;;
78443;SDS011;67739;52.986;8.894;2023-03-01T15:00:59;12.27;;;7.18;;
78443;SDS011;67739;52.986;8.894;2023-03-01T15:06:02;10.27;;;5.60;;
78443;SDS011;67739;52.986;8.894;2023-03-01T15:08:30;10.23;;;5.30;;
78443;SDS011;67739;52.986;8.894;2023-03-01T15:13:48;10.00;;;5.20;;
78443;SDS011;67739;52.986;8.894;2023-03-01T15:16:14;11.55;;;5.88;;
78443;SDS011;67739;52.986;8.894;2023-03-01T15:18:48;9.88;;;4.72;;
78443;SDS011;67739;52.986;8.894;2023-03-01T15:23:47;11.15;;;5.35;;
78443;SDS011;67739;52.986;8.894;2023-03-01T15:26:22;10.75;;;6.47;;
78443;SDS011;67739;52.986;8.894;2023-03-01T15:28:52;11.30;;;5.80;;
78443;SDS011;67739;52.986;8.894;2023-03-01T15:31:24;11.23;;;6.35;;
78443;SDS011;67739;52.986;8.894;2023-03-01T15:33:51;11.05;;;6.13;;
78443;SDS011;67739;52.986;8.894;2023-03-01T15:39:04;11.10;;;5.85;;
78443;SDS011;67739;52.986;8.894;2023-03-01T15:41:47;9.65;;;4.78;;
78443;SDS011;67739;52.986;8.894;2023-03-01T15:44:14;8.55;;;3.97;;
78443;SDS011;67739;52.986;8.894;2023-03-01T15:46:51;10.02;;;5.07;;
78443;SDS011;67739;52.986;8.894;2023-03-01T15:52:05;10.80;;;4.95;;
78443;SDS011;67739;52.986;8.894;2023-03-01T15:54:36;12.30;;;5.93;;
78443;SDS011;67739;52.986;8.894;2023-03-01T15:57:07;9.85;;;6.10;;
78443;SDS011;67739;52.986;8.894;2023-03-01T15:59:38;16.13;;;7.05;;
78443;SDS011;67739;52.986;8.894;2023-03-01T16:02:08;13.70;;;6.60;;
78443;SDS011;67739;52.986;8.894;2023-03-01T16:04:34;11.50;;;6.30;;
78443;SDS011;67739;52.986;8.894;2023-03-01T16:06:59;11.43;;;6.28;;
78443;SDS011;67739;52.986;8.894;2023-03-01T16:09:26;11.77;;;5.85;;
78443;SDS011;67739;52.986;8.894;2023-03-01T16:11:51;10.65;;;6.38;;
78443;SDS011;67739;52.986;8.894;2023-03-01T16:14:18;13.80;;;7.05;;
78443;SDS011;67739;52.986;8.894;2023-03-01T16:16:44;13.60;;;6.68;;
78443;SDS011;67739;52.986;8.894;2023-03-01T16:19:10;12.65;;;7.05;;
78443;SDS011;67739;52.986;8.894;2023-03-01T16:21:35;15.20;;;5.10;;
78443;SDS011;67739;52.986;8.894;2023-03-01T16:24:01;12.55;;;6.55;;
78443;SDS011;67739;52.986;8.894;2023-03-01T16:26:27;12.98;;;6.57;;
78443;SDS011;67739;52.986;8.894;2023-03-01T16:28:55;16.77;;;7.18;;
78443;SDS011;67739;52.986;8.894;2023-03-01T16:31:22;14.55;;;6.18;;
78443;SDS011;67739;52.986;8.894;2023-03-01T16:33:48;14.38;;;6.05;;
78443;SDS011;67739;52.986;8.894;2023-03-01T16:36:16;11.73;;;6.43;;
78443;SDS011;67739;52.986;8.894;2023-03-01T16:38:43;13.23;;;7.22;;
78443;SDS011;67739;52.986;8.894;2023-03-01T16:41:12;13.48;;;6.70;;
78443;SDS011;67739;52.986;8.894;2023-03-01T16:43:39;14.82;;;7.10;;
78443;SDS011;67739;52.986;8.894;2023-03-01T16:46:11;13.45;;;7.70;;
78443;SDS011;67739;52.986;8.894;2023-03-01T16:48:38;15.52;;;7.82;;
78443;SDS011;67739;52.986;8.894;2023-03-01T16:51:05;13.85;;;7.15;;
78443;SDS011;67739;52.986;8.894;2023-03-01T16:53:32;16.15;;;7.68;;
78443;SDS011;67739;52.986;8.894;2023-03-01T16:55:59;15.75;;;7.03;;
78443;SDS011;67739;52.986;8.894;2023-03-01T16:58:24;14.88;;;8.32;;
78443;SDS011;67739;52.986;8.894;2023-03-01T17:00:51;13.75;;;7.53;;
78443;SDS011;67739;52.986;8.894;2023-03-01T17:03:23;14.75;;;7.65;;
78443;SDS011;67739;52.986;8.894;2023-03-01T17:05:50;16.73;;;9.40;;
78443;SDS011;67739;52.986;8.894;2023-03-01T17:08:16;15.88;;;7.57;;
78443;SDS011;67739;52.986;8.894;2023-03-01T17:10:41;17.52;;;8.73;;
78443;SDS011;67739;52.986;8.894;2023-03-01T17:13:07;17.58;;;8.57;;
78443;SDS011;67739;52.986;8.894;2023-03-01T17:15:34;19.20;;;8.25;;
78443;SDS011;67739;52.986;8.894;2023-03-01T17:18:00;19.10;;;8.48;;
78443;SDS011;67739;52.986;8.894;2023-03-01T17:20:26;20.35;;;8.48;;
78443;SDS011;67739;52.986;8.894;2023-03-01T17:22:51;18.48;;;9.07;;
78443;SDS011;67739;52.986;8.894;2023-03-01T17:25:17;17.52;;;7.85;;
78443;SDS011;67739;52.986;8.894;2023-03-01T17:27:42;16.23;;;7.00;;
78443;SDS011;67739;52.986;8.894;2023-03-01T17:30:09;20.58;;;9.43;;
78443;SDS011;67739;52.986;8.894;2023-03-01T17:32:36;15.95;;;7.35;;
78443;SDS011;67739;52.986;8.894;2023-03-01T17:35:01;16.70;;;7.78;;
78443;SDS011;67739;52.986;8.894;2023-03-01T17:37:27;18.27;;;8.45;;